sensor_id;sensor_type;location;lat;lon;timestamp;P1;durP1;ratioP1;P2;durP2;ratioP2
18274;SDS011;19470;49.322;7.218;2023-10-19T00:00:05;34.70;;;21.02;;
18274;SDS011;19470;49.322;7.218;2023-10-19T00:02:46;35.67;;;20.95;;
18274;SDS011;19470;49.322;7.218;2023-10-19T00:05:17;37.30;;;20.02;;
18274;SDS011;19470;49.322;7.218;2023-10-19T00:07:45;39.47;;;21.48;;
18274;SDS011;19470;49.322;7.218;2023-10-19T00:10:11;34.00;;;20.25;;
18274;SDS011;19470;49.322;7.218;2023-10-19T00:12:41;34.85;;;20.77;;
18274;SDS011;19470;49.322;7.218;2023-10-19T00:15:07;34.15;;;20.42;;
18274;SDS011;19470;49.322;7.218;2023-10-19T00:17:35;32.88;;;19.85;;
18274;SDS011;19470;49.322;7.218;2023-10-19T00:20:03;34.65;;;19.38;;
18274;SDS011;19470;49.322;7.218;2023-10-19T00:22:54;40.35;;;21.20;;
18274;SDS011;19470;49.322;7.218;2023-10-19T00:25:22;38.97;;;20.92;;
18274;SDS011;19470;49.322;7.218;2023-10-19T00:27:49;35.25;;;19.42;;
18274;SDS011;19470;49.322;7.218;2023-10-19T00:30:15;35.45;;;19.40;;
18274;SDS011;19470;49.322;7.218;2023-10-19T00:32:48;38.35;;;18.65;;
18274;SDS011;19470;49.322;7.218;2023-10-19T00:35:16;33.83;;;18.13;;
18274;SDS011;19470;49.322;7.218;2023-10-19T00:37:55;32.28;;;17.77;;
18274;SDS011;19470;49.322;7.218;2023-10-19T00:40:42;29.58;;;17.83;;
18274;SDS011;19470;49.322;7.218;2023-10-19T00:43:12;33.53;;;18.50;;
18274;SDS011;19470;49.322;7.218;2023-10-19T00:45:42;30.02;;;17.90;;
18274;SDS011;19470;49.322;7.218;2023-10-19T00:48:11;32.60;;;17.55;;
18274;SDS011;19470;49.322;7.218;2023-10-19T00:50:38;39.45;;;19.08;;
18274;SDS011;19470;49.322;7.218;2023-10-19T00:53:07;37.10;;;20.67;;
18274;SDS011;19470;49.322;7.218;2023-10-19T00:55:37;34.17;;;19.65;;
18274;SDS011;19470;49.322;7.218;2023-10-19T00:58:07;30.88;;;18.70;;
18274;SDS011;19470;49.322;7.218;2023-10-19T01:00:36;36.80;;;18.08;;
18274;SDS011;19470;49.322;7.218;2023-10-19T01:03:09;35.75;;;18.42;;
18274;SDS011;19470;49.322;7.218;2023-10-19T01:05:41;32.88;;;17.25;;
18274;SDS011;19470;49.322;7.218;2023-10-19T01:08:14;24.98;;;12.85;;
18274;SDS011;19470;49.322;7.218;2023-10-19T01:10:49;28.20;;;14.63;;
18274;SDS011;19470;49.322;7.218;2023-10-19T01:13:18;25.92;;;14.15;;
18274;SDS011;19470;49.322;7.218;2023-10-19T01:15:51;29.63;;;14.55;;
18274;SDS011;19470;49.322;7.218;2023-10-19T01:18:19;30.98;;;16.85;;
18274;SDS011;19470;49.322;7.218;2023-10-19T01:20:47;27.98;;;15.13;;
18274;SDS011;19470;49.322;7.218;2023-10-19T01:23:17;20.92;;;12.43;;
18274;SDS011;19470;49.322;7.218;2023-10-19T01:25:53;26.35;;;12.90;;
18274;SDS011;19470;49.322;7.218;2023-10-19T01:28:31;17.40;;;11.18;;
18274;SDS011;19470;49.322;7.218;2023-10-19T01:31:14;20.70;;;11.38;;
18274;SDS011;19470;49.322;7.218;2023-10-19T01:33:47;21.73;;;11.23;;
18274;SDS011;19470;49.322;7.218;2023-10-19T01:36:15;19.25;;;11.50;;
18274;SDS011;19470;49.322;7.218;2023-10-19T01:38:50;15.27;;;10.07;;
18274;SDS011;19470;49.322;7.218;2023-10-19T01:41:19;14.73;;;10.00;;
18274;SDS011;19470;49.322;7.218;2023-10-19T01:43:45;17.58;;;10.73;;
18274;SDS011;19470;49.322;7.218;2023-10-19T01:46:18;18.00;;;10.18;;
18274;SDS011;19470;49.322;7.218;2023-10-19T01:48:48;17.42;;;9.25;;
18274;SDS011;19470;49.322;7.218;2023-10-19T01:51:19;15.60;;;8.77;;
18274;SDS011;19470;49.322;7.218;2023-10-19T01:53:45;15.68;;;8.95;;
18274;SDS011;19470;49.322;7.218;2023-10-19T01:56:14;14.82;;;9.18;;
18274;SDS011;19470;49.322;7.218;2023-10-19T01:58:42;15.05;;;9.25;;
18274;SDS011;19470;49.322;7.218;2023-10-19T02:01:12;14.50;;;8.40;;
18274;SDS011;19470;49.322;7.218;2023-10-19T02:03:54;15.57;;;9.43;;
18274;SDS011;19470;49.322;7.218;2023-10-19T02:06:23;18.30;;;8.95;;
18274;SDS011;19470;49.322;7.218;2023-10-19T02:08:54;21.40;;;11.50;;
18274;SDS011;19470;49.322;7.218;2023-10-19T02:11:27;14.30;;;8.85;;
18274;SDS011;19470;49.322;7.218;2023-10-19T02:13:55;14.43;;;9.48;;
18274;SDS011;19470;49.322;7.218;2023-10-19T02:16:25;14.15;;;9.35;;
18274;SDS011;19470;49.322;7.218;2023-10-19T02:18:54;18.20;;;10.13;;
18274;SDS011;19470;49.322;7.218;2023-10-19T02:21:20;13.02;;;9.18;;
18274;SDS011;19470;49.322;7.218;2023-10-19T02:23:52;16.88;;;9.45;;
18274;SDS011;19470;49.322;7.218;2023-10-19T02:26:19;12.57;;;8.27;;
18274;SDS011;19470;49.322;7.218;2023-10-19T02:28:49;13.68;;;7.88;;
18274;SDS011;19470;49.322;7.218;2023-10-19T02:31:16;12.27;;;8.02;;
18274;SDS011;19470;49.322;7.218;2023-10-19T02:33:47;14.43;;;7.80;;
18274;SDS011;19470;49.322;7.218;2023-10-19T02:36:17;12.88;;;7.57;;
18274;SDS011;19470;49.322;7.218;2023-10-19T02:38:44;13.55;;;8.02;;
18274;SDS011;19470;49.322;7.218;2023-10-19T02:41:13;51.58;;;9.25;;
18274;SDS011;19470;49.322;7.218;2023-10-19T02:43:41;13.20;;;7.80;;
18274;SDS011;19470;49.322;7.218;2023-10-19T02:46:12;16.92;;;7.95;;
18274;SDS011;19470;49.322;7.218;2023-10-19T02:48:41;69.00;;;11.40;;
18274;SDS011;19470;49.322;7.218;2023-10-19T02:51:09;16.42;;;9.18;;
18274;SDS011;19470;49.322;7.218;2023-10-19T02:53:36;14.90;;;9.05;;
18274;SDS011;19470;49.322;7.218;2023-10-19T02:56:12;38.58;;;9.60;;
18274;SDS011;19470;49.322;7.218;2023-10-19T02:58:41;52.30;;;10.75;;
18274;SDS011;19470;49.322;7.218;2023-10-19T03:01:15;101.75;;;12.30;;
18274;SDS011;19470;49.322;7.218;2023-10-19T03:03:48;20.40;;;9.43;;
18274;SDS011;19470;49.322;7.218;2023-10-19T03:06:17;24.60;;;9.77;;
18274;SDS011;19470;49.322;7.218;2023-10-19T03:08:46;16.63;;;8.45;;
18274;SDS011;19470;49.322;7.218;2023-10-19T03:11:12;13.55;;;8.63;;
18274;SDS011;19470;49.322;7.218;2023-10-19T03:13:40;15.68;;;9.82;;
18274;SDS011;19470;49.322;7.218;2023-10-19T03:16:06;17.63;;;10.45;;
18274;SDS011;19470;49.322;7.218;2023-10-19T03:18:35;18.48;;;11.10;;
18274;SDS011;19470;49.322;7.218;2023-10-19T03:21:01;18.25;;;11.85;;
18274;SDS011;19470;49.322;7.218;2023-10-19T03:23:28;20.10;;;11.50;;
18274;SDS011;19470;49.322;7.218;2023-10-19T03:25:54;15.57;;;10.95;;
18274;SDS011;19470;49.322;7.218;2023-10-19T03:28:38;18.23;;;11.43;;
18274;SDS011;19470;49.322;7.218;2023-10-19T03:31:06;19.95;;;11.23;;
18274;SDS011;19470;49.322;7.218;2023-10-19T03:33:32;20.08;;;11.40;;
18274;SDS011;19470;49.322;7.218;2023-10-19T03:36:02;19.50;;;11.35;;
18274;SDS011;19470;49.322;7.218;2023-10-19T03:38:30;22.88;;;11.70;;
18274;SDS011;19470;49.322;7.218;2023-10-19T03:41:02;16.60;;;10.50;;
18274;SDS011;19470;49.322;7.218;2023-10-19T03:43:32;14.52;;;9.75;;
18274;SDS011;19470;49.322;7.218;2023-10-19T03:46:01;19.00;;;10.43;;
18274;SDS011;19470;49.322;7.218;2023-10-19T03:48:31;19.13;;;10.35;;
18274;SDS011;19470;49.322;7.218;2023-10-19T03:51:04;13.82;;;10.00;;
18274;SDS011;19470;49.322;7.218;2023-10-19T03:53:31;21.25;;;11.10;;
18274;SDS011;19470;49.322;7.218;2023-10-19T03:55:58;14.70;;;10.55;;
18274;SDS011;19470;49.322;7.218;2023-10-19T03:58:24;18.48;;;10.50;;
18274;SDS011;19470;49.322;7.218;2023-10-19T04:00:54;13.23;;;10.18;;
18274;SDS011;19470;49.322;7.218;2023-10-19T04:03:26;16.52;;;9.57;;
18274;SDS011;19470;49.322;7.218;2023-10-19T04:05:55;13.80;;;9.20;;
18274;SDS011;19470;49.322;7.218;2023-10-19T04:08:27;12.57;;;8.95;;
18274;SDS011;19470;49.322;7.218;2023-10-19T04:10:59;15.25;;;7.50;;
18274;SDS011;19470;49.322;7.218;2023-10-19T04:13:37;10.48;;;7.40;;
18274;SDS011;19470;49.322;7.218;2023-10-19T04:16:04;12.85;;;7.43;;
18274;SDS011;19470;49.322;7.218;2023-10-19T04:18:33;12.85;;;6.78;;
18274;SDS011;19470;49.322;7.218;2023-10-19T04:21:03;19.20;;;10.23;;
18274;SDS011;19470;49.322;7.218;2023-10-19T04:23:31;14.02;;;7.82;;
18274;SDS011;19470;49.322;7.218;2023-10-19T04:26:01;18.85;;;7.93;;
18274;SDS011;19470;49.322;7.218;2023-10-19T04:28:36;12.88;;;7.07;;
18274;SDS011;19470;49.322;7.218;2023-10-19T04:31:09;12.52;;;6.53;;
18274;SDS011;19470;49.322;7.218;2023-10-19T04:33:38;13.48;;;6.80;;
18274;SDS011;19470;49.322;7.218;2023-10-19T04:36:07;15.95;;;7.10;;
18274;SDS011;19470;49.322;7.218;2023-10-19T04:38:37;9.02;;;6.15;;
18274;SDS011;19470;49.322;7.218;2023-10-19T04:41:05;11.75;;;6.70;;
18274;SDS011;19470;49.322;7.218;2023-10-19T04:43:35;10.18;;;6.93;;
18274;SDS011;19470;49.322;7.218;2023-10-19T04:46:06;14.18;;;6.88;;
18274;SDS011;19470;49.322;7.218;2023-10-19T04:48:36;15.18;;;6.80;;
18274;SDS011;19470;49.322;7.218;2023-10-19T04:51:05;10.48;;;6.70;;
18274;SDS011;19470;49.322;7.218;2023-10-19T04:53:32;12.35;;;6.75;;
18274;SDS011;19470;49.322;7.218;2023-10-19T04:56:00;14.48;;;7.13;;
18274;SDS011;19470;49.322;7.218;2023-10-19T04:58:28;14.50;;;6.57;;
18274;SDS011;19470;49.322;7.218;2023-10-19T05:00:55;13.43;;;5.82;;
18274;SDS011;19470;49.322;7.218;2023-10-19T05:03:23;10.55;;;5.85;;
18274;SDS011;19470;49.322;7.218;2023-10-19T05:05:50;9.75;;;5.60;;
18274;SDS011;19470;49.322;7.218;2023-10-19T05:08:17;10.80;;;5.50;;
18274;SDS011;19470;49.322;7.218;2023-10-19T05:10:44;12.30;;;5.63;;
18274;SDS011;19470;49.322;7.218;2023-10-19T05:13:11;10.63;;;5.22;;
18274;SDS011;19470;49.322;7.218;2023-10-19T05:15:39;12.60;;;5.72;;
18274;SDS011;19470;49.322;7.218;2023-10-19T05:18:06;11.75;;;5.70;;
18274;SDS011;19470;49.322;7.218;2023-10-19T05:20:33;9.35;;;5.03;;
18274;SDS011;19470;49.322;7.218;2023-10-19T05:23:02;10.25;;;6.03;;
18274;SDS011;19470;49.322;7.218;2023-10-19T05:25:29;9.43;;;6.03;;
18274;SDS011;19470;49.322;7.218;2023-10-19T05:27:56;11.10;;;5.55;;
18274;SDS011;19470;49.322;7.218;2023-10-19T05:30:25;8.27;;;5.07;;
18274;SDS011;19470;49.322;7.218;2023-10-19T05:32:51;9.63;;;5.25;;
18274;SDS011;19470;49.322;7.218;2023-10-19T05:35:18;9.00;;;4.82;;
18274;SDS011;19470;49.322;7.218;2023-10-19T05:37:51;9.18;;;5.43;;
18274;SDS011;19470;49.322;7.218;2023-10-19T05:40:17;31.48;;;19.02;;
18274;SDS011;19470;49.322;7.218;2023-10-19T05:42:44;8.93;;;5.85;;
18274;SDS011;19470;49.322;7.218;2023-10-19T05:45:12;11.38;;;5.70;;
18274;SDS011;19470;49.322;7.218;2023-10-19T05:47:42;9.68;;;5.18;;
18274;SDS011;19470;49.322;7.218;2023-10-19T05:50:10;12.68;;;5.10;;
18274;SDS011;19470;49.322;7.218;2023-10-19T05:52:39;9.45;;;5.78;;
18274;SDS011;19470;49.322;7.218;2023-10-19T05:55:07;10.95;;;6.30;;
18274;SDS011;19470;49.322;7.218;2023-10-19T05:57:34;19.30;;;10.32;;
18274;SDS011;19470;49.322;7.218;2023-10-19T06:00:06;8.73;;;5.28;;
18274;SDS011;19470;49.322;7.218;2023-10-19T06:02:37;12.80;;;5.32;;
18274;SDS011;19470;49.322;7.218;2023-10-19T06:05:06;14.00;;;5.75;;
18274;SDS011;19470;49.322;7.218;2023-10-19T06:07:33;11.23;;;5.25;;
18274;SDS011;19470;49.322;7.218;2023-10-19T06:09:59;14.45;;;5.72;;
18274;SDS011;19470;49.322;7.218;2023-10-19T06:12:29;12.52;;;6.63;;
18274;SDS011;19470;49.322;7.218;2023-10-19T06:14:56;8.18;;;5.53;;
18274;SDS011;19470;49.322;7.218;2023-10-19T06:17:22;7.97;;;5.75;;
18274;SDS011;19470;49.322;7.218;2023-10-19T06:19:49;12.38;;;5.55;;
18274;SDS011;19470;49.322;7.218;2023-10-19T06:22:17;10.18;;;5.88;;
18274;SDS011;19470;49.322;7.218;2023-10-19T06:24:43;12.90;;;5.50;;
18274;SDS011;19470;49.322;7.218;2023-10-19T06:27:10;12.48;;;5.97;;
18274;SDS011;19470;49.322;7.218;2023-10-19T06:29:36;8.18;;;5.15;;
18274;SDS011;19470;49.322;7.218;2023-10-19T06:32:03;17.88;;;5.85;;
18274;SDS011;19470;49.322;7.218;2023-10-19T06:34:30;15.55;;;6.32;;
18274;SDS011;19470;49.322;7.218;2023-10-19T06:36:57;9.90;;;5.80;;
18274;SDS011;19470;49.322;7.218;2023-10-19T06:39:41;17.23;;;10.10;;
18274;SDS011;19470;49.322;7.218;2023-10-19T06:42:07;22.45;;;13.13;;
18274;SDS011;19470;49.322;7.218;2023-10-19T06:44:40;11.93;;;7.40;;
18274;SDS011;19470;49.322;7.218;2023-10-19T06:47:08;14.13;;;6.60;;
18274;SDS011;19470;49.322;7.218;2023-10-19T06:49:35;15.95;;;6.50;;
18274;SDS011;19470;49.322;7.218;2023-10-19T06:52:02;11.63;;;5.72;;
18274;SDS011;19470;49.322;7.218;2023-10-19T06:54:29;9.05;;;5.53;;
18274;SDS011;19470;49.322;7.218;2023-10-19T06:56:57;13.93;;;6.32;;
18274;SDS011;19470;49.322;7.218;2023-10-19T06:59:24;9.13;;;5.80;;
18274;SDS011;19470;49.322;7.218;2023-10-19T07:01:50;9.43;;;5.18;;
18274;SDS011;19470;49.322;7.218;2023-10-19T07:04:17;9.02;;;4.78;;
18274;SDS011;19470;49.322;7.218;2023-10-19T07:06:43;8.77;;;5.40;;
18274;SDS011;19470;49.322;7.218;2023-10-19T07:09:12;11.32;;;5.57;;
18274;SDS011;19470;49.322;7.218;2023-10-19T07:11:40;10.05;;;5.35;;
18274;SDS011;19470;49.322;7.218;2023-10-19T07:14:11;9.68;;;4.88;;
18274;SDS011;19470;49.322;7.218;2023-10-19T07:16:38;14.70;;;5.35;;
18274;SDS011;19470;49.322;7.218;2023-10-19T07:19:05;10.40;;;5.00;;
18274;SDS011;19470;49.322;7.218;2023-10-19T07:21:34;7.90;;;5.25;;
18274;SDS011;19470;49.322;7.218;2023-10-19T07:24:03;8.90;;;4.93;;
18274;SDS011;19470;49.322;7.218;2023-10-19T07:26:34;18.85;;;8.55;;
18274;SDS011;19470;49.322;7.218;2023-10-19T07:29:08;17.20;;;7.25;;
18274;SDS011;19470;49.322;7.218;2023-10-19T07:31:36;12.57;;;5.55;;
18274;SDS011;19470;49.322;7.218;2023-10-19T07:34:03;11.68;;;5.57;;
18274;SDS011;19470;49.322;7.218;2023-10-19T07:36:30;18.00;;;10.63;;
18274;SDS011;19470;49.322;7.218;2023-10-19T07:38:57;9.35;;;5.43;;
18274;SDS011;19470;49.322;7.218;2023-10-19T07:41:24;9.93;;;4.90;;
18274;SDS011;19470;49.322;7.218;2023-10-19T07:43:51;11.40;;;5.93;;
18274;SDS011;19470;49.322;7.218;2023-10-19T07:46:17;12.40;;;5.55;;
18274;SDS011;19470;49.322;7.218;2023-10-19T07:48:45;9.00;;;5.47;;
18274;SDS011;19470;49.322;7.218;2023-10-19T07:51:12;11.65;;;5.20;;
18274;SDS011;19470;49.322;7.218;2023-10-19T07:53:38;11.88;;;5.32;;
18274;SDS011;19470;49.322;7.218;2023-10-19T07:56:05;13.88;;;5.57;;
18274;SDS011;19470;49.322;7.218;2023-10-19T07:58:31;12.70;;;5.50;;
18274;SDS011;19470;49.322;7.218;2023-10-19T08:00:59;10.93;;;5.25;;
18274;SDS011;19470;49.322;7.218;2023-10-19T08:03:26;10.75;;;5.03;;
18274;SDS011;19470;49.322;7.218;2023-10-19T08:05:54;4.90;;;4.00;;
18274;SDS011;19470;49.322;7.218;2023-10-19T08:08:20;8.50;;;4.60;;
18274;SDS011;19470;49.322;7.218;2023-10-19T08:10:49;9.85;;;4.38;;
18274;SDS011;19470;49.322;7.218;2023-10-19T08:13:16;6.85;;;4.15;;
18274;SDS011;19470;49.322;7.218;2023-10-19T08:15:42;7.03;;;3.90;;
18274;SDS011;19470;49.322;7.218;2023-10-19T08:18:09;13.93;;;8.68;;
18274;SDS011;19470;49.322;7.218;2023-10-19T08:20:37;9.20;;;3.80;;
18274;SDS011;19470;49.322;7.218;2023-10-19T08:23:05;6.50;;;3.53;;
18274;SDS011;19470;49.322;7.218;2023-10-19T08:25:32;7.43;;;3.33;;
18274;SDS011;19470;49.322;7.218;2023-10-19T08:28:00;10.60;;;3.65;;
18274;SDS011;19470;49.322;7.218;2023-10-19T08:30:26;7.40;;;3.35;;
18274;SDS011;19470;49.322;7.218;2023-10-19T08:32:53;5.22;;;2.70;;
18274;SDS011;19470;49.322;7.218;2023-10-19T08:35:23;6.25;;;2.50;;
18274;SDS011;19470;49.322;7.218;2023-10-19T08:37:50;4.78;;;3.00;;
18274;SDS011;19470;49.322;7.218;2023-10-19T08:40:19;7.15;;;2.72;;
18274;SDS011;19470;49.322;7.218;2023-10-19T08:42:48;8.27;;;2.92;;
18274;SDS011;19470;49.322;7.218;2023-10-19T08:45:15;4.70;;;2.60;;
18274;SDS011;19470;49.322;7.218;2023-10-19T08:47:43;6.53;;;2.75;;
18274;SDS011;19470;49.322;7.218;2023-10-19T08:50:15;4.45;;;2.80;;
18274;SDS011;19470;49.322;7.218;2023-10-19T08:52:45;4.68;;;2.75;;
18274;SDS011;19470;49.322;7.218;2023-10-19T08:55:13;5.88;;;2.65;;
18274;SDS011;19470;49.322;7.218;2023-10-19T08:57:41;8.02;;;3.15;;
18274;SDS011;19470;49.322;7.218;2023-10-19T09:00:08;4.20;;;2.40;;
18274;SDS011;19470;49.322;7.218;2023-10-19T09:02:35;4.50;;;2.60;;
18274;SDS011;19470;49.322;7.218;2023-10-19T09:05:05;3.15;;;2.53;;
18274;SDS011;19470;49.322;7.218;2023-10-19T09:07:32;6.20;;;2.67;;
18274;SDS011;19470;49.322;7.218;2023-10-19T09:09:59;6.13;;;2.90;;
18274;SDS011;19470;49.322;7.218;2023-10-19T09:12:28;3.42;;;2.50;;
18274;SDS011;19470;49.322;7.218;2023-10-19T09:14:56;5.95;;;2.65;;
18274;SDS011;19470;49.322;7.218;2023-10-19T09:17:27;6.18;;;2.40;;
18274;SDS011;19470;49.322;7.218;2023-10-19T09:19:54;6.70;;;2.30;;
18274;SDS011;19470;49.322;7.218;2023-10-19T09:22:21;6.72;;;2.30;;
18274;SDS011;19470;49.322;7.218;2023-10-19T09:24:48;3.95;;;2.40;;
18274;SDS011;19470;49.322;7.218;2023-10-19T09:27:16;4.43;;;2.50;;
18274;SDS011;19470;49.322;7.218;2023-10-19T09:29:43;4.97;;;2.10;;
18274;SDS011;19470;49.322;7.218;2023-10-19T09:32:11;3.50;;;2.33;;
18274;SDS011;19470;49.322;7.218;2023-10-19T09:34:39;3.25;;;1.88;;
18274;SDS011;19470;49.322;7.218;2023-10-19T09:37:08;5.70;;;2.45;;
18274;SDS011;19470;49.322;7.218;2023-10-19T09:42:58;5.78;;;2.17;;
18274;SDS011;19470;49.322;7.218;2023-10-19T09:45:28;4.05;;;2.08;;
18274;SDS011;19470;49.322;7.218;2023-10-19T09:47:59;3.58;;;1.70;;
18274;SDS011;19470;49.322;7.218;2023-10-19T09:50:31;4.22;;;2.00;;
18274;SDS011;19470;49.322;7.218;2023-10-19T09:52:58;6.30;;;2.10;;
18274;SDS011;19470;49.322;7.218;2023-10-19T09:55:27;6.43;;;2.40;;
18274;SDS011;19470;49.322;7.218;2023-10-19T09:58:00;3.35;;;2.08;;
18274;SDS011;19470;49.322;7.218;2023-10-19T10:00:33;5.35;;;1.90;;
18274;SDS011;19470;49.322;7.218;2023-10-19T10:03:01;6.25;;;1.83;;
18274;SDS011;19470;49.322;7.218;2023-10-19T10:05:44;4.00;;;1.63;;
18274;SDS011;19470;49.322;7.218;2023-10-19T10:08:31;3.78;;;1.65;;
18274;SDS011;19470;49.322;7.218;2023-10-19T10:10:58;2.50;;;1.65;;
18274;SDS011;19470;49.322;7.218;2023-10-19T10:13:42;3.72;;;1.88;;
18274;SDS011;19470;49.322;7.218;2023-10-19T10:16:08;3.70;;;1.88;;
18274;SDS011;19470;49.322;7.218;2023-10-19T10:18:36;5.10;;;2.08;;
18274;SDS011;19470;49.322;7.218;2023-10-19T10:21:06;2.63;;;1.85;;
18274;SDS011;19470;49.322;7.218;2023-10-19T10:23:39;6.70;;;2.33;;
18274;SDS011;19470;49.322;7.218;2023-10-19T10:26:07;3.90;;;2.00;;
18274;SDS011;19470;49.322;7.218;2023-10-19T10:28:34;3.78;;;1.73;;
18274;SDS011;19470;49.322;7.218;2023-10-19T10:31:11;3.67;;;1.60;;
18274;SDS011;19470;49.322;7.218;2023-10-19T10:33:42;3.45;;;2.05;;
18274;SDS011;19470;49.322;7.218;2023-10-19T10:36:13;4.68;;;2.00;;
18274;SDS011;19470;49.322;7.218;2023-10-19T10:38:42;4.45;;;1.80;;
18274;SDS011;19470;49.322;7.218;2023-10-19T10:41:09;7.50;;;1.92;;
18274;SDS011;19470;49.322;7.218;2023-10-19T10:46:24;9.30;;;3.17;;
18274;SDS011;19470;49.322;7.218;2023-10-19T10:48:53;4.88;;;2.00;;
18274;SDS011;19470;49.322;7.218;2023-10-19T10:51:20;9.80;;;6.20;;
18274;SDS011;19470;49.322;7.218;2023-10-19T10:53:49;4.00;;;2.05;;
18274;SDS011;19470;49.322;7.218;2023-10-19T10:56:17;3.72;;;2.13;;
18274;SDS011;19470;49.322;7.218;2023-10-19T10:58:45;4.28;;;1.90;;
18274;SDS011;19470;49.322;7.218;2023-10-19T11:01:12;2.70;;;2.03;;
18274;SDS011;19470;49.322;7.218;2023-10-19T11:03:39;3.65;;;2.05;;
18274;SDS011;19470;49.322;7.218;2023-10-19T11:06:07;3.97;;;1.92;;
18274;SDS011;19470;49.322;7.218;2023-10-19T11:08:35;3.88;;;1.83;;
18274;SDS011;19470;49.322;7.218;2023-10-19T11:11:02;4.95;;;1.73;;
18274;SDS011;19470;49.322;7.218;2023-10-19T11:13:31;3.95;;;1.80;;
18274;SDS011;19470;49.322;7.218;2023-10-19T11:16:02;2.67;;;1.65;;
18274;SDS011;19470;49.322;7.218;2023-10-19T11:18:31;5.93;;;2.30;;
18274;SDS011;19470;49.322;7.218;2023-10-19T11:21:03;5.68;;;2.15;;
18274;SDS011;19470;49.322;7.218;2023-10-19T11:23:40;5.35;;;2.03;;
18274;SDS011;19470;49.322;7.218;2023-10-19T11:26:08;2.80;;;1.88;;
18274;SDS011;19470;49.322;7.218;2023-10-19T11:28:35;7.00;;;2.00;;
18274;SDS011;19470;49.322;7.218;2023-10-19T11:31:15;5.72;;;3.03;;
18274;SDS011;19470;49.322;7.218;2023-10-19T11:33:43;12.82;;;6.93;;
18274;SDS011;19470;49.322;7.218;2023-10-19T11:36:14;12.98;;;8.60;;
18274;SDS011;19470;49.322;7.218;2023-10-19T11:38:43;4.82;;;2.17;;
18274;SDS011;19470;49.322;7.218;2023-10-19T11:41:11;4.70;;;1.90;;
18274;SDS011;19470;49.322;7.218;2023-10-19T11:43:38;4.18;;;1.77;;
18274;SDS011;19470;49.322;7.218;2023-10-19T11:46:05;4.05;;;1.85;;
18274;SDS011;19470;49.322;7.218;2023-10-19T11:48:32;4.22;;;2.03;;
18274;SDS011;19470;49.322;7.218;2023-10-19T11:51:01;3.65;;;1.90;;
18274;SDS011;19470;49.322;7.218;2023-10-19T11:53:29;7.22;;;1.52;;
18274;SDS011;19470;49.322;7.218;2023-10-19T11:55:59;4.25;;;1.38;;
18274;SDS011;19470;49.322;7.218;2023-10-19T11:58:28;5.30;;;1.60;;
18274;SDS011;19470;49.322;7.218;2023-10-19T12:00:55;3.35;;;1.67;;
18274;SDS011;19470;49.322;7.218;2023-10-19T12:03:22;2.53;;;1.67;;
18274;SDS011;19470;49.322;7.218;2023-10-19T12:05:48;4.63;;;1.80;;
18274;SDS011;19470;49.322;7.218;2023-10-19T12:08:18;1.73;;;1.40;;
18274;SDS011;19470;49.322;7.218;2023-10-19T12:10:44;3.30;;;1.52;;
18274;SDS011;19470;49.322;7.218;2023-10-19T12:13:12;3.72;;;1.42;;
18274;SDS011;19470;49.322;7.218;2023-10-19T12:15:38;3.60;;;1.67;;
18274;SDS011;19470;49.322;7.218;2023-10-19T12:18:06;2.72;;;1.60;;
18274;SDS011;19470;49.322;7.218;2023-10-19T12:20:33;5.45;;;1.50;;
18274;SDS011;19470;49.322;7.218;2023-10-19T12:23:00;2.65;;;1.48;;
18274;SDS011;19470;49.322;7.218;2023-10-19T12:25:27;4.07;;;2.10;;
18274;SDS011;19470;49.322;7.218;2023-10-19T12:27:58;4.35;;;1.70;;
18274;SDS011;19470;49.322;7.218;2023-10-19T12:33:18;2.50;;;1.40;;
18274;SDS011;19470;49.322;7.218;2023-10-19T12:35:45;2.10;;;1.30;;
18274;SDS011;19470;49.322;7.218;2023-10-19T12:38:14;7.15;;;1.70;;
18274;SDS011;19470;49.322;7.218;2023-10-19T12:40:44;3.15;;;1.50;;
18274;SDS011;19470;49.322;7.218;2023-10-19T12:43:11;2.28;;;1.15;;
18274;SDS011;19470;49.322;7.218;2023-10-19T12:45:39;3.15;;;1.58;;
18274;SDS011;19470;49.322;7.218;2023-10-19T12:48:07;3.28;;;1.52;;
18274;SDS011;19470;49.322;7.218;2023-10-19T12:50:35;54.28;;;34.58;;
18274;SDS011;19470;49.322;7.218;2023-10-19T12:53:03;7.90;;;4.57;;
18274;SDS011;19470;49.322;7.218;2023-10-19T12:55:31;2.45;;;1.65;;
18274;SDS011;19470;49.322;7.218;2023-10-19T12:57:57;3.78;;;1.85;;
18274;SDS011;19470;49.322;7.218;2023-10-19T13:00:31;3.95;;;2.10;;
18274;SDS011;19470;49.322;7.218;2023-10-19T13:03:01;1.80;;;1.50;;
18274;SDS011;19470;49.322;7.218;2023-10-19T13:05:33;3.10;;;1.75;;
18274;SDS011;19470;49.322;7.218;2023-10-19T13:08:00;4.28;;;2.33;;
18274;SDS011;19470;49.322;7.218;2023-10-19T13:10:29;4.25;;;2.05;;
18274;SDS011;19470;49.322;7.218;2023-10-19T13:12:57;3.08;;;2.00;;
18274;SDS011;19470;49.322;7.218;2023-10-19T13:15:28;3.30;;;1.85;;
18274;SDS011;19470;49.322;7.218;2023-10-19T13:17:56;5.65;;;2.45;;
18274;SDS011;19470;49.322;7.218;2023-10-19T13:20:23;5.18;;;2.20;;
18274;SDS011;19470;49.322;7.218;2023-10-19T13:22:52;7.22;;;1.80;;
18274;SDS011;19470;49.322;7.218;2023-10-19T13:25:19;5.20;;;1.92;;
18274;SDS011;19470;49.322;7.218;2023-10-19T13:28:03;5.35;;;2.70;;
18274;SDS011;19470;49.322;7.218;2023-10-19T13:30:35;2.63;;;1.95;;
18274;SDS011;19470;49.322;7.218;2023-10-19T13:33:03;2.95;;;2.17;;
18274;SDS011;19470;49.322;7.218;2023-10-19T13:35:31;5.32;;;2.50;;
18274;SDS011;19470;49.322;7.218;2023-10-19T13:38:00;4.95;;;2.50;;
18274;SDS011;19470;49.322;7.218;2023-10-19T13:40:26;5.07;;;2.65;;
18274;SDS011;19470;49.322;7.218;2023-10-19T13:42:55;3.83;;;2.80;;
18274;SDS011;19470;49.322;7.218;2023-10-19T13:45:22;6.85;;;3.13;;
18274;SDS011;19470;49.322;7.218;2023-10-19T13:47:49;7.47;;;3.20;;
18274;SDS011;19470;49.322;7.218;2023-10-19T13:50:17;3.90;;;3.33;;
18274;SDS011;19470;49.322;7.218;2023-10-19T13:52:44;7.43;;;3.60;;
18274;SDS011;19470;49.322;7.218;2023-10-19T13:55:12;5.45;;;3.65;;
18274;SDS011;19470;49.322;7.218;2023-10-19T13:57:42;4.38;;;3.40;;
18274;SDS011;19470;49.322;7.218;2023-10-19T14:00:09;4.65;;;3.38;;
18274;SDS011;19470;49.322;7.218;2023-10-19T14:02:36;4.03;;;3.30;;
18274;SDS011;19470;49.322;7.218;2023-10-19T14:05:04;8.55;;;3.50;;
18274;SDS011;19470;49.322;7.218;2023-10-19T14:07:32;7.05;;;4.05;;
18274;SDS011;19470;49.322;7.218;2023-10-19T14:09:59;4.60;;;3.30;;
18274;SDS011;19470;49.322;7.218;2023-10-19T14:12:27;6.88;;;3.65;;
18274;SDS011;19470;49.322;7.218;2023-10-19T14:14:53;6.07;;;4.43;;
18274;SDS011;19470;49.322;7.218;2023-10-19T14:17:20;5.80;;;3.90;;
18274;SDS011;19470;49.322;7.218;2023-10-19T14:19:46;4.10;;;3.70;;
18274;SDS011;19470;49.322;7.218;2023-10-19T14:22:13;7.30;;;4.30;;
18274;SDS011;19470;49.322;7.218;2023-10-19T14:27:55;6.38;;;3.28;;
18274;SDS011;19470;49.322;7.218;2023-10-19T14:30:24;5.65;;;3.80;;
18274;SDS011;19470;49.322;7.218;2023-10-19T14:32:53;5.60;;;3.50;;
18274;SDS011;19470;49.322;7.218;2023-10-19T14:35:20;5.63;;;4.10;;
18274;SDS011;19470;49.322;7.218;2023-10-19T14:37:48;3.95;;;2.92;;
18274;SDS011;19470;49.322;7.218;2023-10-19T14:40:17;6.78;;;3.85;;
18274;SDS011;19470;49.322;7.218;2023-10-19T14:42:46;4.72;;;3.55;;
18274;SDS011;19470;49.322;7.218;2023-10-19T14:45:14;5.13;;;3.20;;
18274;SDS011;19470;49.322;7.218;2023-10-19T14:47:46;5.43;;;3.58;;
18274;SDS011;19470;49.322;7.218;2023-10-19T14:50:13;4.05;;;3.10;;
18274;SDS011;19470;49.322;7.218;2023-10-19T14:52:43;3.95;;;3.55;;
18274;SDS011;19470;49.322;7.218;2023-10-19T14:55:11;8.23;;;3.58;;
18274;SDS011;19470;49.322;7.218;2023-10-19T14:57:40;6.47;;;3.60;;
18274;SDS011;19470;49.322;7.218;2023-10-19T15:00:07;6.40;;;4.20;;